sensor_id;sensor_type;location;lat;lon;timestamp;temperature;humidity
47779;DHT22;33538;48.432;11.350;2023-08-21T00:00:43;25.30;70.90
47779;DHT22;33538;48.432;11.350;2023-08-21T00:03:10;25.30;70.90
47779;DHT22;33538;48.432;11.350;2023-08-21T00:05:37;25.30;70.80
47779;DHT22;33538;48.432;11.350;2023-08-21T00:08:04;25.30;71.00
47779;DHT22;33538;48.432;11.350;2023-08-21T00:10:31;25.20;71.10
47779;DHT22;33538;48.432;11.350;2023-08-21T00:12:57;25.20;71.30
47779;DHT22;33538;48.432;11.350;2023-08-21T00:15:24;25.20;71.20
47779;DHT22;33538;48.432;11.350;2023-08-21T00:17:52;25.20;71.20
47779;DHT22;33538;48.432;11.350;2023-08-21T00:20:19;25.20;71.40
47779;DHT22;33538;48.432;11.350;2023-08-21T00:22:46;25.10;71.50
47779;DHT22;33538;48.432;11.350;2023-08-21T00:25:13;25.10;71.50
47779;DHT22;33538;48.432;11.350;2023-08-21T00:27:40;25.10;71.60
47779;DHT22;33538;48.432;11.350;2023-08-21T00:30:08;25.10;71.60
47779;DHT22;33538;48.432;11.350;2023-08-21T00:32:35;25.10;71.70
47779;DHT22;33538;48.432;11.350;2023-08-21T00:35:04;25.10;71.40
47779;DHT22;33538;48.432;11.350;2023-08-21T00:37:31;25.10;71.40
47779;DHT22;33538;48.432;11.350;2023-08-21T00:39:58;25.10;71.60
47779;DHT22;33538;48.432;11.350;2023-08-21T00:42:24;25.00;71.60
47779;DHT22;33538;48.432;11.350;2023-08-21T00:44:51;25.00;71.70
47779;DHT22;33538;48.432;11.350;2023-08-21T00:47:18;25.00;71.60
47779;DHT22;33538;48.432;11.350;2023-08-21T00:49:45;25.00;71.40
47779;DHT22;33538;48.432;11.350;2023-08-21T00:52:14;25.00;71.10
47779;DHT22;33538;48.432;11.350;2023-08-21T00:54:42;25.00;71.20
47779;DHT22;33538;48.432;11.350;2023-08-21T00:57:10;25.00;71.40
47779;DHT22;33538;48.432;11.350;2023-08-21T00:59:37;24.90;71.30
47779;DHT22;33538;48.432;11.350;2023-08-21T01:02:04;24.90;71.30
47779;DHT22;33538;48.432;11.350;2023-08-21T01:04:31;24.90;71.30
47779;DHT22;33538;48.432;11.350;2023-08-21T01:06:58;24.90;71.30
47779;DHT22;33538;48.432;11.350;2023-08-21T01:09:31;24.90;71.60
47779;DHT22;33538;48.432;11.350;2023-08-21T01:12:06;24.90;71.60
47779;DHT22;33538;48.432;11.350;2023-08-21T01:14:41;24.90;71.40
47779;DHT22;33538;48.432;11.350;2023-08-21T01:17:10;24.70;71.90
47779;DHT22;33538;48.432;11.350;2023-08-21T01:19:41;24.50;72.60
47779;DHT22;33538;48.432;11.350;2023-08-21T01:22:08;24.60;72.70
47779;DHT22;33538;48.432;11.350;2023-08-21T01:24:36;24.70;72.00
47779;DHT22;33538;48.432;11.350;2023-08-21T01:27:03;24.70;72.00
47779;DHT22;33538;48.432;11.350;2023-08-21T01:29:30;24.70;71.80
47779;DHT22;33538;48.432;11.350;2023-08-21T01:32:02;24.70;71.80
47779;DHT22;33538;48.432;11.350;2023-08-21T01:34:31;24.70;71.80
47779;DHT22;33538;48.432;11.350;2023-08-21T01:36:59;24.70;71.70
47779;DHT22;33538;48.432;11.350;2023-08-21T01:39:27;24.70;71.80
47779;DHT22;33538;48.432;11.350;2023-08-21T01:41:56;24.70;72.00
47779;DHT22;33538;48.432;11.350;2023-08-21T01:44:23;24.60;72.00
47779;DHT22;33538;48.432;11.350;2023-08-21T01:46:50;24.60;72.10
47779;DHT22;33538;48.432;11.350;2023-08-21T01:49:17;24.60;71.90
47779;DHT22;33538;48.432;11.350;2023-08-21T01:51:44;24.60;71.80
47779;DHT22;33538;48.432;11.350;2023-08-21T01:54:10;24.60;71.70
47779;DHT22;33538;48.432;11.350;2023-08-21T01:56:37;24.60;71.80
47779;DHT22;33538;48.432;11.350;2023-08-21T01:59:05;24.60;71.50
47779;DHT22;33538;48.432;11.350;2023-08-21T02:01:32;24.60;71.60
47779;DHT22;33538;48.432;11.350;2023-08-21T02:03:59;24.50;71.70
47779;DHT22;33538;48.432;11.350;2023-08-21T02:06:26;24.50;71.80
47779;DHT22;33538;48.432;11.350;2023-08-21T02:08:53;24.40;72.10
47779;DHT22;33538;48.432;11.350;2023-08-21T02:11:20;24.40;72.20
47779;DHT22;33538;48.432;11.350;2023-08-21T02:13:46;24.40;72.40
47779;DHT22;33538;48.432;11.350;2023-08-21T02:16:14;24.40;72.00
47779;DHT22;33538;48.432;11.350;2023-08-21T02:18:41;24.40;72.00
47779;DHT22;33538;48.432;11.350;2023-08-21T02:21:08;24.40;71.90
47779;DHT22;33538;48.432;11.350;2023-08-21T02:23:35;24.40;72.00
47779;DHT22;33538;48.432;11.350;2023-08-21T02:26:02;24.40;71.80
47779;DHT22;33538;48.432;11.350;2023-08-21T02:28:28;24.40;72.00
47779;DHT22;33538;48.432;11.350;2023-08-21T02:30:55;24.30;71.90
47779;DHT22;33538;48.432;11.350;2023-08-21T02:33:23;24.30;71.80
47779;DHT22;33538;48.432;11.350;2023-08-21T02:35:50;24.30;71.60
47779;DHT22;33538;48.432;11.350;2023-08-21T02:38:17;24.30;71.80
47779;DHT22;33538;48.432;11.350;2023-08-21T02:40:44;24.30;71.60
47779;DHT22;33538;48.432;11.350;2023-08-21T02:43:11;24.30;71.80
47779;DHT22;33538;48.432;11.350;2023-08-21T02:45:37;24.20;71.90
47779;DHT22;33538;48.432;11.350;2023-08-21T02:48:05;24.20;72.20
47779;DHT22;33538;48.432;11.350;2023-08-21T02:50:33;24.20;72.00
47779;DHT22;33538;48.432;11.350;2023-08-21T02:53:00;24.10;71.90
47779;DHT22;33538;48.432;11.350;2023-08-21T02:55:27;24.10;71.90
47779;DHT22;33538;48.432;11.350;2023-08-21T02:57:53;24.10;72.20
47779;DHT22;33538;48.432;11.350;2023-08-21T03:00:20;24.10;72.10
47779;DHT22;33538;48.432;11.350;2023-08-21T03:02:47;24.10;72.00
47779;DHT22;33538;48.432;11.350;2023-08-21T03:05:14;24.00;71.90
47779;DHT22;33538;48.432;11.350;2023-08-21T03:07:42;24.00;72.00
47779;DHT22;33538;48.432;11.350;2023-08-21T03:10:09;24.00;71.70
47779;DHT22;33538;48.432;11.350;2023-08-21T03:12:36;24.00;71.60
47779;DHT22;33538;48.432;11.350;2023-08-21T03:15:04;24.00;71.70
47779;DHT22;33538;48.432;11.350;2023-08-21T03:17:31;24.00;72.00
47779;DHT22;33538;48.432;11.350;2023-08-21T03:19:57;24.00;71.70
47779;DHT22;33538;48.432;11.350;2023-08-21T03:22:24;24.00;71.60
47779;DHT22;33538;48.432;11.350;2023-08-21T03:24:52;24.00;71.80
47779;DHT22;33538;48.432;11.350;2023-08-21T03:27:19;23.90;71.90
47779;DHT22;33538;48.432;11.350;2023-08-21T03:29:46;23.90;71.80
47779;DHT22;33538;48.432;11.350;2023-08-21T03:32:13;23.90;71.70
47779;DHT22;33538;48.432;11.350;2023-08-21T03:34:40;23.90;71.90
47779;DHT22;33538;48.432;11.350;2023-08-21T03:37:07;23.90;71.90
47779;DHT22;33538;48.432;11.350;2023-08-21T03:39:33;23.80;71.90
47779;DHT22;33538;48.432;11.350;2023-08-21T03:42:02;23.80;71.90
47779;DHT22;33538;48.432;11.350;2023-08-21T03:44:29;23.80;71.80
47779;DHT22;33538;48.432;11.350;2023-08-21T03:46:56;23.80;72.00
47779;DHT22;33538;48.432;11.350;2023-08-21T03:49:23;23.80;71.70
47779;DHT22;33538;48.432;11.350;2023-08-21T03:51:50;23.80;71.60
47779;DHT22;33538;48.432;11.350;2023-08-21T03:54:16;23.80;71.80
47779;DHT22;33538;48.432;11.350;2023-08-21T03:56:43;23.70;72.10
47779;DHT22;33538;48.432;11.350;2023-08-21T03:59:11;23.70;72.00
47779;DHT22;33538;48.432;11.350;2023-08-21T04:01:38;23.70;72.00
47779;DHT22;33538;48.432;11.350;2023-08-21T04:04:05;23.70;72.30
47779;DHT22;33538;48.432;11.350;2023-08-21T04:06:32;23.60;72.30
47779;DHT22;33538;48.432;11.350;2023-08-21T04:08:59;23.60;72.20
47779;DHT22;33538;48.432;11.350;2023-08-21T04:11:26;23.60;72.50
47779;DHT22;33538;48.432;11.350;2023-08-21T04:13:53;23.60;72.40
47779;DHT22;33538;48.432;11.350;2023-08-21T04:16:21;23.60;72.20
47779;DHT22;33538;48.432;11.350;2023-08-21T04:18:48;23.50;72.30
47779;DHT22;33538;48.432;11.350;2023-08-21T04:21:14;23.50;73.10
47779;DHT22;33538;48.432;11.350;2023-08-21T04:23:41;23.40;72.30
47779;DHT22;33538;48.432;11.350;2023-08-21T04:26:08;23.40;72.00
47779;DHT22;33538;48.432;11.350;2023-08-21T04:28:36;23.40;72.10
47779;DHT22;33538;48.432;11.350;2023-08-21T04:31:04;23.40;72.10
47779;DHT22;33538;48.432;11.350;2023-08-21T04:33:33;23.40;72.00
47779;DHT22;33538;48.432;11.350;2023-08-21T04:36:00;23.40;72.50
47779;DHT22;33538;48.432;11.350;2023-08-21T04:38:27;23.40;72.60
47779;DHT22;33538;48.432;11.350;2023-08-21T04:40:54;23.40;72.70
47779;DHT22;33538;48.432;11.350;2023-08-21T04:43:21;23.30;72.80
47779;DHT22;33538;48.432;11.350;2023-08-21T04:45:48;23.30;72.70
47779;DHT22;33538;48.432;11.350;2023-08-21T04:48:15;23.30;72.80
47779;DHT22;33538;48.432;11.350;2023-08-21T04:50:43;23.20;72.70
47779;DHT22;33538;48.432;11.350;2023-08-21T04:53:10;23.30;72.70
47779;DHT22;33538;48.432;11.350;2023-08-21T04:55:36;23.30;72.70
47779;DHT22;33538;48.432;11.350;2023-08-21T04:58:03;23.20;72.70
47779;DHT22;33538;48.432;11.350;2023-08-21T05:00:30;23.20;72.80
47779;DHT22;33538;48.432;11.350;2023-08-21T05:02:57;23.20;73.00
47779;DHT22;33538;48.432;11.350;2023-08-21T05:05:24;23.20;73.10
47779;DHT22;33538;48.432;11.350;2023-08-21T05:07:53;23.20;73.50
47779;DHT22;33538;48.432;11.350;2023-08-21T05:10:20;23.30;73.80
47779;DHT22;33538;48.432;11.350;2023-08-21T05:12:47;23.30;73.90
47779;DHT22;33538;48.432;11.350;2023-08-21T05:15:14;23.30;74.00
47779;DHT22;33538;48.432;11.350;2023-08-21T05:17:40;23.30;74.30
47779;DHT22;33538;48.432;11.350;2023-08-21T05:20:08;23.20;74.60
47779;DHT22;33538;48.432;11.350;2023-08-21T05:22:35;23.20;74.90
47779;DHT22;33538;48.432;11.350;2023-08-21T05:25:05;23.20;75.00
47779;DHT22;33538;48.432;11.350;2023-08-21T05:27:32;23.20;74.90
47779;DHT22;33538;48.432;11.350;2023-08-21T05:29:58;23.30;75.10
47779;DHT22;33538;48.432;11.350;2023-08-21T05:32:25;23.20;75.30
47779;DHT22;33538;48.432;11.350;2023-08-21T05:34:52;23.20;75.40
47779;DHT22;33538;48.432;11.350;2023-08-21T05:37:19;23.20;75.80
47779;DHT22;33538;48.432;11.350;2023-08-21T05:39:45;23.20;75.70
47779;DHT22;33538;48.432;11.350;2023-08-21T05:42:14;23.20;76.00
47779;DHT22;33538;48.432;11.350;2023-08-21T05:44:40;23.20;76.10
47779;DHT22;33538;48.432;11.350;2023-08-21T05:47:07;23.20;76.30
47779;DHT22;33538;48.432;11.350;2023-08-21T05:49:34;23.20;76.70
47779;DHT22;33538;48.432;11.350;2023-08-21T05:52:01;23.20;77.10
47779;DHT22;33538;48.432;11.350;2023-08-21T05:54:27;23.20;77.30
47779;DHT22;33538;48.432;11.350;2023-08-21T05:56:54;23.20;77.50
47779;DHT22;33538;48.432;11.350;2023-08-21T05:59:31;23.20;77.90
47779;DHT22;33538;48.432;11.350;2023-08-21T06:01:58;23.30;78.20
47779;DHT22;33538;48.432;11.350;2023-08-21T06:04:25;23.20;78.20
47779;DHT22;33538;48.432;11.350;2023-08-21T06:06:52;23.30;78.10
47779;DHT22;33538;48.432;11.350;2023-08-21T06:09:19;23.30;78.30
47779;DHT22;33538;48.432;11.350;2023-08-21T06:11:46;23.30;78.40
47779;DHT22;33538;48.432;11.350;2023-08-21T06:14:13;23.30;78.60
47779;DHT22;33538;48.432;11.350;2023-08-21T06:16:41;23.40;78.80
47779;DHT22;33538;48.432;11.350;2023-08-21T06:19:08;23.40;78.80
47779;DHT22;33538;48.432;11.350;2023-08-21T06:21:35;23.40;79.20
47779;DHT22;33538;48.432;11.350;2023-08-21T06:24:01;23.40;79.20
47779;DHT22;33538;48.432;11.350;2023-08-21T06:26:28;23.50;80.30
47779;DHT22;33538;48.432;11.350;2023-08-21T06:28:55;23.50;78.60
47779;DHT22;33538;48.432;11.350;2023-08-21T06:31:22;23.50;78.10
47779;DHT22;33538;48.432;11.350;2023-08-21T06:33:50;23.60;77.40
47779;DHT22;33538;48.432;11.350;2023-08-21T06:36:17;23.60;77.10
47779;DHT22;33538;48.432;11.350;2023-08-21T06:38:44;23.60;76.70
47779;DHT22;33538;48.432;11.350;2023-08-21T06:41:10;23.70;76.10
47779;DHT22;33538;48.432;11.350;2023-08-21T06:43:39;23.70;75.70
47779;DHT22;33538;48.432;11.350;2023-08-21T06:46:10;23.70;75.10
47779;DHT22;33538;48.432;11.350;2023-08-21T06:48:38;23.70;75.00
47779;DHT22;33538;48.432;11.350;2023-08-21T06:51:07;23.80;74.90
47779;DHT22;33538;48.432;11.350;2023-08-21T06:53:34;23.80;74.90
47779;DHT22;33538;48.432;11.350;2023-08-21T06:56:01;23.90;74.80
47779;DHT22;33538;48.432;11.350;2023-08-21T06:58:28;23.90;74.40
47779;DHT22;33538;48.432;11.350;2023-08-21T07:00:54;24.00;74.40
47779;DHT22;33538;48.432;11.350;2023-08-21T07:03:21;24.00;74.40
47779;DHT22;33538;48.432;11.350;2023-08-21T07:05:53;24.00;74.40
47779;DHT22;33538;48.432;11.350;2023-08-21T07:08:22;24.00;74.40
47779;DHT22;33538;48.432;11.350;2023-08-21T07:10:48;24.10;74.30
47779;DHT22;33538;48.432;11.350;2023-08-21T07:13:15;24.10;74.30
47779;DHT22;33538;48.432;11.350;2023-08-21T07:15:42;24.10;74.20
47779;DHT22;33538;48.432;11.350;2023-08-21T07:18:09;24.20;74.10
47779;DHT22;33538;48.432;11.350;2023-08-21T07:20:36;24.20;74.10
47779;DHT22;33538;48.432;11.350;2023-08-21T07:23:03;24.20;73.90
47779;DHT22;33538;48.432;11.350;2023-08-21T07:25:31;24.30;73.90
47779;DHT22;33538;48.432;11.350;2023-08-21T07:27:58;24.30;73.90
47779;DHT22;33538;48.432;11.350;2023-08-21T07:30:24;24.30;74.00
47779;DHT22;33538;48.432;11.350;2023-08-21T07:32:53;24.30;74.10
47779;DHT22;33538;48.432;11.350;2023-08-21T07:35:20;24.40;74.10
47779;DHT22;33538;48.432;11.350;2023-08-21T07:37:47;24.40;74.40
47779;DHT22;33538;48.432;11.350;2023-08-21T07:40:14;24.40;74.40
47779;DHT22;33538;48.432;11.350;2023-08-21T07:42:42;24.40;74.60
47779;DHT22;33538;48.432;11.350;2023-08-21T07:45:10;24.40;74.70
47779;DHT22;33538;48.432;11.350;2023-08-21T07:47:36;24.50;75.00
47779;DHT22;33538;48.432;11.350;2023-08-21T07:50:04;24.50;74.80
47779;DHT22;33538;48.432;11.350;2023-08-21T07:52:32;24.50;74.70
47779;DHT22;33538;48.432;11.350;2023-08-21T07:54:58;24.50;74.70
47779;DHT22;33538;48.432;11.350;2023-08-21T07:57:25;24.50;74.60
47779;DHT22;33538;48.432;11.350;2023-08-21T07:59:53;24.60;74.60
47779;DHT22;33538;48.432;11.350;2023-08-21T08:02:22;24.60;74.60
47779;DHT22;33538;48.432;11.350;2023-08-21T08:04:49;24.60;74.60
47779;DHT22;33538;48.432;11.350;2023-08-21T08:07:16;24.70;74.70
47779;DHT22;33538;48.432;11.350;2023-08-21T08:09:43;24.70;74.80
47779;DHT22;33538;48.432;11.350;2023-08-21T08:12:10;24.70;74.70
47779;DHT22;33538;48.432;11.350;2023-08-21T08:14:38;24.70;74.80
47779;DHT22;33538;48.432;11.350;2023-08-21T08:17:06;24.70;74.80
47779;DHT22;33538;48.432;11.350;2023-08-21T08:19:33;24.80;74.90
47779;DHT22;33538;48.432;11.350;2023-08-21T08:21:59;24.80;75.00
47779;DHT22;33538;48.432;11.350;2023-08-21T08:24:26;24.80;74.90
47779;DHT22;33538;48.432;11.350;2023-08-21T08:26:53;24.80;75.10
47779;DHT22;33538;48.432;11.350;2023-08-21T08:29:20;24.90;75.10
47779;DHT22;33538;48.432;11.350;2023-08-21T08:31:47;24.90;75.00
47779;DHT22;33538;48.432;11.350;2023-08-21T08:34:15;24.90;75.00
47779;DHT22;33538;48.432;11.350;2023-08-21T08:36:42;24.90;75.00
47779;DHT22;33538;48.432;11.350;2023-08-21T08:39:09;24.90;75.10
47779;DHT22;33538;48.432;11.350;2023-08-21T08:41:40;25.00;75.10
47779;DHT22;33538;48.432;11.350;2023-08-21T08:44:13;25.00;75.10
47779;DHT22;33538;48.432;11.350;2023-08-21T08:46:41;25.00;75.10
47779;DHT22;33538;48.432;11.350;2023-08-21T08:49:09;25.00;75.20
47779;DHT22;33538;48.432;11.350;2023-08-21T08:51:38;25.10;75.30
47779;DHT22;33538;48.432;11.350;2023-08-21T08:54:06;25.10;75.50
47779;DHT22;33538;48.432;11.350;2023-08-21T08:56:34;25.10;75.50
47779;DHT22;33538;48.432;11.350;2023-08-21T08:59:01;25.10;75.60
47779;DHT22;33538;48.432;11.350;2023-08-21T09:01:28;25.10;75.70
47779;DHT22;33538;48.432;11.350;2023-08-21T09:03:55;25.10;75.80
47779;DHT22;33538;48.432;11.350;2023-08-21T09:06:22;25.20;76.00
47779;DHT22;33538;48.432;11.350;2023-08-21T09:08:57;25.20;76.00
47779;DHT22;33538;48.432;11.350;2023-08-21T09:11:24;25.20;76.10
47779;DHT22;33538;48.432;11.350;2023-08-21T09:13:52;25.30;76.30
47779;DHT22;33538;48.432;11.350;2023-08-21T09:16:20;25.30;76.50
47779;DHT22;33538;48.432;11.350;2023-08-21T09:18:47;25.30;76.60
47779;DHT22;33538;48.432;11.350;2023-08-21T09:21:16;25.30;76.70
47779;DHT22;33538;48.432;11.350;2023-08-21T09:23:43;25.30;76.90
47779;DHT22;33538;48.432;11.350;2023-08-21T09:26:13;25.40;77.00
47779;DHT22;33538;48.432;11.350;2023-08-21T09:28:44;25.40;77.30
47779;DHT22;33538;48.432;11.350;2023-08-21T09:31:11;25.40;77.40
47779;DHT22;33538;48.432;11.350;2023-08-21T09:33:38;25.40;77.60
47779;DHT22;33538;48.432;11.350;2023-08-21T09:36:05;25.50;77.70
47779;DHT22;33538;48.432;11.350;2023-08-21T09:38:33;25.50;77.90
47779;DHT22;33538;48.432;11.350;2023-08-21T09:41:00;25.50;78.20
47779;DHT22;33538;48.432;11.350;2023-08-21T09:43:29;25.50;78.20
47779;DHT22;33538;48.432;11.350;2023-08-21T09:45:56;25.50;78.50
47779;DHT22;33538;48.432;11.350;2023-08-21T09:48:24;25.60;78.60
47779;DHT22;33538;48.432;11.350;2023-08-21T09:50:52;25.60;78.70
47779;DHT22;33538;48.432;11.350;2023-08-21T09:53:20;25.60;78.80
47779;DHT22;33538;48.432;11.350;2023-08-21T09:55:47;25.60;79.00
47779;DHT22;33538;48.432;11.350;2023-08-21T09:58:16;25.70;79.20
47779;DHT22;33538;48.432;11.350;2023-08-21T10:00:45;25.70;79.20
47779;DHT22;33538;48.432;11.350;2023-08-21T10:03:13;25.70;79.40
47779;DHT22;33538;48.432;11.350;2023-08-21T10:05:42;25.80;79.60
47779;DHT22;33538;48.432;11.350;2023-08-21T10:08:09;25.80;79.90
47779;DHT22;33538;48.432;11.350;2023-08-21T10:10:37;25.80;80.00
47779;DHT22;33538;48.432;11.350;2023-08-21T10:13:05;25.80;81.00
47779;DHT22;33538;48.432;11.350;2023-08-21T10:15:34;25.80;80.20
47779;DHT22;33538;48.432;11.350;2023-08-21T10:18:21;25.90;80.40
47779;DHT22;33538;48.432;11.350;2023-08-21T10:20:48;25.90;80.60
47779;DHT22;33538;48.432;11.350;2023-08-21T10:23:26;25.90;80.80
47779;DHT22;33538;48.432;11.350;2023-08-21T10:25:56;25.90;81.10
47779;DHT22;33538;48.432;11.350;2023-08-21T10:28:42;26.00;81.30
47779;DHT22;33538;48.432;11.350;2023-08-21T10:31:29;26.00;81.50
47779;DHT22;33538;48.432;11.350;2023-08-21T10:33:58;26.00;81.70
47779;DHT22;33538;48.432;11.350;2023-08-21T10:39:21;26.10;81.90
47779;DHT22;33538;48.432;11.350;2023-08-21T10:41:54;26.10;82.10
47779;DHT22;33538;48.432;11.350;2023-08-21T10:44:34;26.10;82.20
47779;DHT22;33538;48.432;11.350;2023-08-21T10:47:15;26.10;82.40
47779;DHT22;33538;48.432;11.350;2023-08-21T10:49:44;26.20;82.60
47779;DHT22;33538;48.432;11.350;2023-08-21T10:52:12;26.20;82.70
47779;DHT22;33538;48.432;11.350;2023-08-21T10:54:46;26.20;82.70
47779;DHT22;33538;48.432;11.350;2023-08-21T10:57:13;26.20;82.80
47779;DHT22;33538;48.432;11.350;2023-08-21T10:59:50;26.30;83.10
47779;DHT22;33538;48.432;11.350;2023-08-21T11:02:17;26.30;83.00
47779;DHT22;33538;48.432;11.350;2023-08-21T11:04:46;26.30;83.30
47779;DHT22;33538;48.432;11.350;2023-08-21T11:07:12;26.30;83.10
47779;DHT22;33538;48.432;11.350;2023-08-21T11:09:39;26.40;83.40
47779;DHT22;33538;48.432;11.350;2023-08-21T11:12:08;26.40;83.60
47779;DHT22;33538;48.432;11.350;2023-08-21T11:14:35;26.40;83.40
47779;DHT22;33538;48.432;11.350;2023-08-21T11:17:03;26.40;83.50
47779;DHT22;33538;48.432;11.350;2023-08-21T11:19:30;26.40;83.50
47779;DHT22;33538;48.432;11.350;2023-08-21T11:21:59;26.40;83.90
47779;DHT22;33538;48.432;11.350;2023-08-21T11:24:30;26.40;83.80
47779;DHT22;33538;48.432;11.350;2023-08-21T11:26:57;26.50;84.30
47779;DHT22;33538;48.432;11.350;2023-08-21T11:29:24;26.50;84.00
47779;DHT22;33538;48.432;11.350;2023-08-21T11:31:52;26.50;84.10
47779;DHT22;33538;48.432;11.350;2023-08-21T11:34:19;26.60;84.30
47779;DHT22;33538;48.432;11.350;2023-08-21T11:36:50;26.60;84.30
47779;DHT22;33538;48.432;11.350;2023-08-21T11:39:18;26.60;84.40
47779;DHT22;33538;48.432;11.350;2023-08-21T11:41:54;26.60;84.50
47779;DHT22;33538;48.432;11.350;2023-08-21T11:44:21;26.60;84.40
47779;DHT22;33538;48.432;11.350;2023-08-21T11:46:50;26.60;84.40
47779;DHT22;33538;48.432;11.350;2023-08-21T11:49:18;26.70;84.60
47779;DHT22;33538;48.432;11.350;2023-08-21T11:51:45;26.80;84.20
47779;DHT22;33538;48.432;11.350;2023-08-21T11:54:12;26.70;84.40
47779;DHT22;33538;48.432;11.350;2023-08-21T11:56:40;26.70;84.50
47779;DHT22;33538;48.432;11.350;2023-08-21T11:59:07;26.70;84.50
47779;DHT22;33538;48.432;11.350;2023-08-21T12:01:34;26.70;84.60
47779;DHT22;33538;48.432;11.350;2023-08-21T12:04:01;26.80;84.70
47779;DHT22;33538;48.432;11.350;2023-08-21T12:06:28;26.80;84.60
47779;DHT22;33538;48.432;11.350;2023-08-21T12:08:55;26.80;84.80
47779;DHT22;33538;48.432;11.350;2023-08-21T12:11:21;26.80;84.80
47779;DHT22;33538;48.432;11.350;2023-08-21T12:13:50;26.80;84.70
47779;DHT22;33538;48.432;11.350;2023-08-21T12:16:16;26.90;85.00
47779;DHT22;33538;48.432;11.350;2023-08-21T12:18:43;26.90;84.90
47779;DHT22;33538;48.432;11.350;2023-08-21T12:21:10;26.90;84.90
47779;DHT22;33538;48.432;11.350;2023-08-21T12:23:37;26.90;85.00
47779;DHT22;33538;48.432;11.350;2023-08-21T12:26:04;27.00;84.90
47779;DHT22;33538;48.432;11.350;2023-08-21T12:28:30;27.00;85.00
47779;DHT22;33538;48.432;11.350;2023-08-21T12:30:58;27.00;85.10
47779;DHT22;33538;48.432;11.350;2023-08-21T12:33:25;27.00;85.00
47779;DHT22;33538;48.432;11.350;2023-08-21T12:35:52;27.00;84.90
47779;DHT22;33538;48.432;11.350;2023-08-21T12:38:19;27.00;84.90
47779;DHT22;33538;48.432;11.350;2023-08-21T12:40:46;27.00;85.00
47779;DHT22;33538;48.432;11.350;2023-08-21T12:43:12;27.10;85.60
47779;DHT22;33538;48.432;11.350;2023-08-21T12:45:39;27.10;85.30
47779;DHT22;33538;48.432;11.350;2023-08-21T12:48:08;27.20;85.30
47779;DHT22;33538;48.432;11.350;2023-08-21T12:50:35;27.10;85.30
47779;DHT22;33538;48.432;11.350;2023-08-21T12:53:02;27.10;85.40
47779;DHT22;33538;48.432;11.350;2023-08-21T12:55:29;27.20;86.20
47779;DHT22;33538;48.432;11.350;2023-08-21T12:57:56;27.20;85.60
47779;DHT22;33538;48.432;11.350;2023-08-21T13:00:23;27.20;85.60
47779;DHT22;33538;48.432;11.350;2023-08-21T13:02:50;27.20;85.80
47779;DHT22;33538;48.432;11.350;2023-08-21T13:05:18;27.20;85.60
47779;DHT22;33538;48.432;11.350;2023-08-21T13:07:45;27.20;85.50
47779;DHT22;33538;48.432;11.350;2023-08-21T13:10:13;27.20;85.60
47779;DHT22;33538;48.432;11.350;2023-08-21T13:12:39;27.20;85.60
47779;DHT22;33538;48.432;11.350;2023-08-21T13:15:07;27.30;85.60
47779;DHT22;33538;48.432;11.350;2023-08-21T13:17:34;27.30;86.40
47779;DHT22;33538;48.432;11.350;2023-08-21T13:20:01;27.30;85.60
47779;DHT22;33538;48.432;11.350;2023-08-21T13:22:44;27.30;85.50
47779;DHT22;33538;48.432;11.350;2023-08-21T13:25:10;27.30;85.60
47779;DHT22;33538;48.432;11.350;2023-08-21T13:27:37;27.30;85.50
47779;DHT22;33538;48.432;11.350;2023-08-21T13:30:06;27.40;85.50
47779;DHT22;33538;48.432;11.350;2023-08-21T13:32:33;27.30;85.50
47779;DHT22;33538;48.432;11.350;2023-08-21T13:34:59;27.40;85.70
47779;DHT22;33538;48.432;11.350;2023-08-21T13:37:26;27.40;85.50
47779;DHT22;33538;48.432;11.350;2023-08-21T13:39:55;27.40;85.40
47779;DHT22;33538;48.432;11.350;2023-08-21T13:42:22;27.40;85.30
47779;DHT22;33538;48.432;11.350;2023-08-21T13:44:48;27.40;85.20
47779;DHT22;33538;48.432;11.350;2023-08-21T13:47:15;27.50;85.00
47779;DHT22;33538;48.432;11.350;2023-08-21T13:49:42;27.40;84.80
47779;DHT22;33538;48.432;11.350;2023-08-21T13:52:09;27.50;84.80
47779;DHT22;33538;48.432;11.350;2023-08-21T13:54:36;27.40;84.70
47779;DHT22;33538;48.432;11.350;2023-08-21T13:57:04;27.50;84.90
47779;DHT22;33538;48.432;11.350;2023-08-21T13:59:32;27.50;84.70
47779;DHT22;33538;48.432;11.350;2023-08-21T14:01:59;27.50;84.70
47779;DHT22;33538;48.432;11.350;2023-08-21T14:04:25;27.50;84.80
47779;DHT22;33538;48.432;11.350;2023-08-21T14:06:52;27.60;84.80
47779;DHT22;33538;48.432;11.350;2023-08-21T14:09:19;27.60;84.90
47779;DHT22;33538;48.432;11.350;2023-08-21T14:11:46;27.60;84.90
47779;DHT22;33538;48.432;11.350;2023-08-21T14:14:14;27.60;84.90
47779;DHT22;33538;48.432;11.350;2023-08-21T14:16:41;27.60;84.90
47779;DHT22;33538;48.432;11.350;2023-08-21T14:19:08;27.60;85.00
47779;DHT22;33538;48.432;11.350;2023-08-21T14:21:34;27.70;85.30
47779;DHT22;33538;48.432;11.350;2023-08-21T14:24:01;27.70;85.30
47779;DHT22;33538;48.432;11.350;2023-08-21T14:26:28;27.70;85.30
47779;DHT22;33538;48.432;11.350;2023-08-21T14:28:55;27.70;85.30
47779;DHT22;33538;48.432;11.350;2023-08-21T14:31:23;27.70;85.40
47779;DHT22;33538;48.432;11.350;2023-08-21T14:33:49;27.80;85.20
47779;DHT22;33538;48.432;11.350;2023-08-21T14:36:16;27.80;85.10
47779;DHT22;33538;48.432;11.350;2023-08-21T14:38:44;27.80;84.80
47779;DHT22;33538;48.432;11.350;2023-08-21T14:41:10;27.80;84.60
47779;DHT22;33538;48.432;11.350;2023-08-21T14:43:37;27.80;84.40
47779;DHT22;33538;48.432;11.350;2023-08-21T14:46:04;27.80;84.00
47779;DHT22;33538;48.432;11.350;2023-08-21T14:48:32;27.90;83.10
47779;DHT22;33538;48.432;11.350;2023-08-21T14:50:59;27.90;83.30
47779;DHT22;33538;48.432;11.350;2023-08-21T14:53:26;27.90;83.40
47779;DHT22;33538;48.432;11.350;2023-08-21T14:55:53;27.90;84.10
47779;DHT22;33538;48.432;11.350;2023-08-21T14:58:20;27.90;83.30
47779;DHT22;33538;48.432;11.350;2023-08-21T15:00:47;27.90;83.20
47779;DHT22;33538;48.432;11.350;2023-08-21T15:03:17;27.90;83.00
47779;DHT22;33538;48.432;11.350;2023-08-21T15:05:45;28.00;83.00
47779;DHT22;33538;48.432;11.350;2023-08-21T15:08:12;28.00;82.90
47779;DHT22;33538;48.432;11.350;2023-08-21T15:10:39;28.00;82.90
47779;DHT22;33538;48.432;11.350;2023-08-21T15:13:06;28.00;83.00
47779;DHT22;33538;48.432;11.350;2023-08-21T15:15:33;28.00;82.90
47779;DHT22;33538;48.432;11.350;2023-08-21T15:17:59;28.00;82.90
47779;DHT22;33538;48.432;11.350;2023-08-21T15:20:26;28.10;83.10